sensor_id;sensor_type;location;lat;lon;timestamp;temperature;humidity
53498;DHT22;39382;47.168;16.008;2023-11-22T00:01:37;3.20;99.90
53498;DHT22;39382;47.168;16.008;2023-11-22T00:04:03;3.10;99.90
53498;DHT22;39382;47.168;16.008;2023-11-22T00:06:28;3.00;99.90
53498;DHT22;39382;47.168;16.008;2023-11-22T00:08:55;3.00;99.90
53498;DHT22;39382;47.168;16.008;2023-11-22T00:11:20;3.10;99.90
53498;DHT22;39382;47.168;16.008;2023-11-22T00:13:46;3.40;99.90
53498;DHT22;39382;47.168;16.008;2023-11-22T00:16:12;3.10;99.90
53498;DHT22;39382;47.168;16.008;2023-11-22T00:18:37;2.90;99.90
53498;DHT22;39382;47.168;16.008;2023-11-22T00:21:04;2.80;99.90
53498;DHT22;39382;47.168;16.008;2023-11-22T00:23:30;2.80;99.90
53498;DHT22;39382;47.168;16.008;2023-11-22T00:25:56;2.90;99.90
53498;DHT22;39382;47.168;16.008;2023-11-22T00:28:25;3.10;99.90
53498;DHT22;39382;47.168;16.008;2023-11-22T00:30:50;2.80;99.90
53498;DHT22;39382;47.168;16.008;2023-11-22T00:33:16;2.80;99.90
53498;DHT22;39382;47.168;16.008;2023-11-22T00:35:43;2.80;99.90
53498;DHT22;39382;47.168;16.008;2023-11-22T00:38:09;2.80;99.90
53498;DHT22;39382;47.168;16.008;2023-11-22T00:40:34;2.80;99.90
53498;DHT22;39382;47.168;16.008;2023-11-22T00:43:00;2.70;99.90
53498;DHT22;39382;47.168;16.008;2023-11-22T00:45:25;2.70;99.90
53498;DHT22;39382;47.168;16.008;2023-11-22T00:47:51;2.90;99.90
53498;DHT22;39382;47.168;16.008;2023-11-22T00:50:17;2.60;99.90
53498;DHT22;39382;47.168;16.008;2023-11-22T00:52:47;2.70;99.90
53498;DHT22;39382;47.168;16.008;2023-11-22T00:55:13;2.70;99.90
53498;DHT22;39382;47.168;16.008;2023-11-22T00:57:38;2.60;99.90
53498;DHT22;39382;47.168;16.008;2023-11-22T01:00:06;2.60;99.90
53498;DHT22;39382;47.168;16.008;2023-11-22T01:02:34;2.60;99.90
53498;DHT22;39382;47.168;16.008;2023-11-22T01:05:05;2.60;99.90
53498;DHT22;39382;47.168;16.008;2023-11-22T01:07:32;2.50;99.90
53498;DHT22;39382;47.168;16.008;2023-11-22T01:09:58;2.40;99.90
53498;DHT22;39382;47.168;16.008;2023-11-22T01:12:23;2.40;99.90
53498;DHT22;39382;47.168;16.008;2023-11-22T01:14:49;2.30;99.90
53498;DHT22;39382;47.168;16.008;2023-11-22T01:17:14;2.30;99.90
53498;DHT22;39382;47.168;16.008;2023-11-22T01:19:40;2.30;99.90
53498;DHT22;39382;47.168;16.008;2023-11-22T01:22:05;2.40;99.90
53498;DHT22;39382;47.168;16.008;2023-11-22T01:24:31;2.80;99.90
53498;DHT22;39382;47.168;16.008;2023-11-22T01:26:57;2.50;99.90
53498;DHT22;39382;47.168;16.008;2023-11-22T01:29:22;2.50;99.90
53498;DHT22;39382;47.168;16.008;2023-11-22T01:31:48;2.50;99.90
53498;DHT22;39382;47.168;16.008;2023-11-22T01:34:15;2.50;99.90
53498;DHT22;39382;47.168;16.008;2023-11-22T01:36:43;2.50;99.90
53498;DHT22;39382;47.168;16.008;2023-11-22T01:39:13;2.60;99.90
53498;DHT22;39382;47.168;16.008;2023-11-22T01:41:39;2.80;99.90
53498;DHT22;39382;47.168;16.008;2023-11-22T01:44:05;2.60;99.90
53498;DHT22;39382;47.168;16.008;2023-11-22T01:46:30;2.60;99.90
53498;DHT22;39382;47.168;16.008;2023-11-22T01:48:56;2.80;99.90
53498;DHT22;39382;47.168;16.008;2023-11-22T01:51:22;2.50;99.90
53498;DHT22;39382;47.168;16.008;2023-11-22T01:53:51;2.60;99.90
53498;DHT22;39382;47.168;16.008;2023-11-22T01:56:22;2.60;99.90
53498;DHT22;39382;47.168;16.008;2023-11-22T01:58:49;3.20;99.90
53498;DHT22;39382;47.168;16.008;2023-11-22T02:01:14;2.70;99.90
53498;DHT22;39382;47.168;16.008;2023-11-22T02:03:41;3.80;99.90
53498;DHT22;39382;47.168;16.008;2023-11-22T02:06:08;2.50;99.90
53498;DHT22;39382;47.168;16.008;2023-11-22T02:08:35;3.10;99.90
53498;DHT22;39382;47.168;16.008;2023-11-22T02:11:01;2.40;99.90
53498;DHT22;39382;47.168;16.008;2023-11-22T02:13:32;3.20;99.90
53498;DHT22;39382;47.168;16.008;2023-11-22T02:15:58;2.60;99.90
53498;DHT22;39382;47.168;16.008;2023-11-22T02:18:26;2.50;99.90
53498;DHT22;39382;47.168;16.008;2023-11-22T02:20:52;2.90;99.90
53498;DHT22;39382;47.168;16.008;2023-11-22T02:23:42;2.60;99.90
53498;DHT22;39382;47.168;16.008;2023-11-22T02:26:08;2.60;99.90
53498;DHT22;39382;47.168;16.008;2023-11-22T02:28:34;2.60;99.90
53498;DHT22;39382;47.168;16.008;2023-11-22T02:31:11;3.20;99.90
53498;DHT22;39382;47.168;16.008;2023-11-22T02:33:38;2.70;99.90
53498;DHT22;39382;47.168;16.008;2023-11-22T02:36:04;2.70;99.90
53498;DHT22;39382;47.168;16.008;2023-11-22T02:38:29;2.80;99.90
53498;DHT22;39382;47.168;16.008;2023-11-22T02:40:55;2.80;99.90
53498;DHT22;39382;47.168;16.008;2023-11-22T02:43:21;2.80;99.90
53498;DHT22;39382;47.168;16.008;2023-11-22T02:45:48;2.80;99.90
53498;DHT22;39382;47.168;16.008;2023-11-22T02:48:14;2.80;99.90
53498;DHT22;39382;47.168;16.008;2023-11-22T02:50:39;2.90;99.90
53498;DHT22;39382;47.168;16.008;2023-11-22T02:53:08;2.90;99.90
53498;DHT22;39382;47.168;16.008;2023-11-22T02:55:34;3.00;99.90
53498;DHT22;39382;47.168;16.008;2023-11-22T02:58:00;2.90;99.90
53498;DHT22;39382;47.168;16.008;2023-11-22T03:00:25;2.90;99.90
53498;DHT22;39382;47.168;16.008;2023-11-22T03:02:51;3.50;99.90
53498;DHT22;39382;47.168;16.008;2023-11-22T03:05:20;3.00;99.90
53498;DHT22;39382;47.168;16.008;2023-11-22T03:07:46;3.00;99.90
53498;DHT22;39382;47.168;16.008;2023-11-22T03:10:12;3.10;99.90
53498;DHT22;39382;47.168;16.008;2023-11-22T03:12:38;3.10;99.90
53498;DHT22;39382;47.168;16.008;2023-11-22T03:15:04;3.10;99.90
53498;DHT22;39382;47.168;16.008;2023-11-22T03:17:30;3.10;99.90
53498;DHT22;39382;47.168;16.008;2023-11-22T03:19:57;3.10;99.90
53498;DHT22;39382;47.168;16.008;2023-11-22T03:22:27;3.30;99.90
53498;DHT22;39382;47.168;16.008;2023-11-22T03:24:56;3.20;99.90
53498;DHT22;39382;47.168;16.008;2023-11-22T03:27:22;3.10;99.90
53498;DHT22;39382;47.168;16.008;2023-11-22T03:29:49;3.10;99.90
53498;DHT22;39382;47.168;16.008;2023-11-22T03:32:14;3.10;99.90
53498;DHT22;39382;47.168;16.008;2023-11-22T03:34:40;3.10;99.90
53498;DHT22;39382;47.168;16.008;2023-11-22T03:37:06;3.10;99.90
53498;DHT22;39382;47.168;16.008;2023-11-22T03:39:32;3.10;99.90
53498;DHT22;39382;47.168;16.008;2023-11-22T03:41:58;3.20;99.90
53498;DHT22;39382;47.168;16.008;2023-11-22T03:44:23;3.10;99.90
53498;DHT22;39382;47.168;16.008;2023-11-22T03:46:49;3.10;99.90
53498;DHT22;39382;47.168;16.008;2023-11-22T03:49:15;3.10;99.90
53498;DHT22;39382;47.168;16.008;2023-11-22T03:51:42;3.00;99.90
53498;DHT22;39382;47.168;16.008;2023-11-22T03:54:08;3.00;99.90
53498;DHT22;39382;47.168;16.008;2023-11-22T03:56:35;3.00;99.90
53498;DHT22;39382;47.168;16.008;2023-11-22T03:59:01;3.00;99.90
53498;DHT22;39382;47.168;16.008;2023-11-22T04:01:26;3.10;99.90
53498;DHT22;39382;47.168;16.008;2023-11-22T04:03:52;3.20;99.90
53498;DHT22;39382;47.168;16.008;2023-11-22T04:06:19;3.20;99.90
53498;DHT22;39382;47.168;16.008;2023-11-22T04:08:45;3.60;99.90
53498;DHT22;39382;47.168;16.008;2023-11-22T04:11:11;3.50;99.90
53498;DHT22;39382;47.168;16.008;2023-11-22T04:13:37;3.50;99.90
53498;DHT22;39382;47.168;16.008;2023-11-22T04:16:04;3.60;99.90
53498;DHT22;39382;47.168;16.008;2023-11-22T04:18:29;3.50;99.90
53498;DHT22;39382;47.168;16.008;2023-11-22T04:20:55;3.60;99.90
53498;DHT22;39382;47.168;16.008;2023-11-22T04:23:23;3.70;99.90
53498;DHT22;39382;47.168;16.008;2023-11-22T04:25:49;4.10;99.90
53498;DHT22;39382;47.168;16.008;2023-11-22T04:28:15;3.90;99.90
53498;DHT22;39382;47.168;16.008;2023-11-22T04:30:41;3.90;99.90
53498;DHT22;39382;47.168;16.008;2023-11-22T04:33:07;3.80;99.90
53498;DHT22;39382;47.168;16.008;2023-11-22T04:35:32;3.80;99.90
53498;DHT22;39382;47.168;16.008;2023-11-22T04:38:02;3.80;99.90
53498;DHT22;39382;47.168;16.008;2023-11-22T04:40:29;3.80;99.90
53498;DHT22;39382;47.168;16.008;2023-11-22T04:42:55;4.00;99.90
53498;DHT22;39382;47.168;16.008;2023-11-22T04:45:20;4.30;99.90
53498;DHT22;39382;47.168;16.008;2023-11-22T04:47:46;4.50;99.90
53498;DHT22;39382;47.168;16.008;2023-11-22T04:50:12;4.50;99.90
53498;DHT22;39382;47.168;16.008;2023-11-22T04:52:37;4.60;99.90
53498;DHT22;39382;47.168;16.008;2023-11-22T04:55:03;4.70;99.90
53498;DHT22;39382;47.168;16.008;2023-11-22T04:57:30;4.90;99.90
53498;DHT22;39382;47.168;16.008;2023-11-22T04:59:55;5.00;99.90
53498;DHT22;39382;47.168;16.008;2023-11-22T05:02:21;4.90;99.90
53498;DHT22;39382;47.168;16.008;2023-11-22T05:04:46;5.60;99.90
53498;DHT22;39382;47.168;16.008;2023-11-22T05:07:17;4.90;99.90
53498;DHT22;39382;47.168;16.008;2023-11-22T05:09:44;5.10;99.90
53498;DHT22;39382;47.168;16.008;2023-11-22T05:12:10;5.10;99.90
53498;DHT22;39382;47.168;16.008;2023-11-22T05:14:37;5.30;99.90
53498;DHT22;39382;47.168;16.008;2023-11-22T05:17:03;5.60;99.90
53498;DHT22;39382;47.168;16.008;2023-11-22T05:19:29;5.50;99.90
53498;DHT22;39382;47.168;16.008;2023-11-22T05:21:55;6.40;99.90
53498;DHT22;39382;47.168;16.008;2023-11-22T05:24:21;6.20;99.90
53498;DHT22;39382;47.168;16.008;2023-11-22T05:26:47;6.10;99.90
53498;DHT22;39382;47.168;16.008;2023-11-22T05:29:12;6.00;99.90
53498;DHT22;39382;47.168;16.008;2023-11-22T05:31:38;6.20;99.90
53498;DHT22;39382;47.168;16.008;2023-11-22T05:34:03;5.80;99.90
53498;DHT22;39382;47.168;16.008;2023-11-22T05:36:29;5.80;99.90
53498;DHT22;39382;47.168;16.008;2023-11-22T05:38:55;5.90;99.90
53498;DHT22;39382;47.168;16.008;2023-11-22T05:41:24;6.70;99.90
53498;DHT22;39382;47.168;16.008;2023-11-22T05:43:52;5.90;99.90
53498;DHT22;39382;47.168;16.008;2023-11-22T05:46:19;5.90;99.90
53498;DHT22;39382;47.168;16.008;2023-11-22T05:48:47;5.70;99.90
53498;DHT22;39382;47.168;16.008;2023-11-22T05:51:15;5.60;99.90
53498;DHT22;39382;47.168;16.008;2023-11-22T05:53:40;5.90;99.90
53498;DHT22;39382;47.168;16.008;2023-11-22T05:56:06;5.50;99.90
53498;DHT22;39382;47.168;16.008;2023-11-22T05:58:34;5.50;99.90
53498;DHT22;39382;47.168;16.008;2023-11-22T06:01:06;5.50;99.90
53498;DHT22;39382;47.168;16.008;2023-11-22T06:03:33;5.50;99.90
53498;DHT22;39382;47.168;16.008;2023-11-22T06:05:59;5.50;99.90
53498;DHT22;39382;47.168;16.008;2023-11-22T06:08:25;5.70;99.90
53498;DHT22;39382;47.168;16.008;2023-11-22T06:10:51;5.50;99.90
53498;DHT22;39382;47.168;16.008;2023-11-22T06:13:18;5.50;99.90
53498;DHT22;39382;47.168;16.008;2023-11-22T06:15:45;6.10;99.90
53498;DHT22;39382;47.168;16.008;2023-11-22T06:18:11;6.00;99.90
53498;DHT22;39382;47.168;16.008;2023-11-22T06:20:39;5.80;99.90
53498;DHT22;39382;47.168;16.008;2023-11-22T06:23:05;5.70;99.90
53498;DHT22;39382;47.168;16.008;2023-11-22T06:25:30;5.60;99.90
53498;DHT22;39382;47.168;16.008;2023-11-22T06:27:56;5.50;99.90
53498;DHT22;39382;47.168;16.008;2023-11-22T06:30:22;6.00;99.90
53498;DHT22;39382;47.168;16.008;2023-11-22T06:32:48;5.50;99.90
53498;DHT22;39382;47.168;16.008;2023-11-22T06:35:14;5.40;99.90
53498;DHT22;39382;47.168;16.008;2023-11-22T06:37:40;5.40;99.90
53498;DHT22;39382;47.168;16.008;2023-11-22T06:40:06;5.30;99.90
53498;DHT22;39382;47.168;16.008;2023-11-22T06:42:33;5.40;99.90
53498;DHT22;39382;47.168;16.008;2023-11-22T06:45:00;5.30;99.90
53498;DHT22;39382;47.168;16.008;2023-11-22T06:47:26;5.20;99.90
53498;DHT22;39382;47.168;16.008;2023-11-22T06:49:52;5.20;99.90
53498;DHT22;39382;47.168;16.008;2023-11-22T06:52:18;5.40;99.90
53498;DHT22;39382;47.168;16.008;2023-11-22T06:54:44;5.20;99.90
53498;DHT22;39382;47.168;16.008;2023-11-22T06:57:10;5.20;99.90
53498;DHT22;39382;47.168;16.008;2023-11-22T06:59:35;5.80;99.90
53498;DHT22;39382;47.168;16.008;2023-11-22T07:02:01;5.20;99.90
53498;DHT22;39382;47.168;16.008;2023-11-22T07:04:27;5.10;99.90
53498;DHT22;39382;47.168;16.008;2023-11-22T07:06:53;5.10;99.90
53498;DHT22;39382;47.168;16.008;2023-11-22T07:09:19;5.30;99.90
53498;DHT22;39382;47.168;16.008;2023-11-22T07:11:44;5.40;99.90
53498;DHT22;39382;47.168;16.008;2023-11-22T07:14:10;5.40;99.90
53498;DHT22;39382;47.168;16.008;2023-11-22T07:16:36;6.10;99.90
53498;DHT22;39382;47.168;16.008;2023-11-22T07:19:03;6.70;99.90
53498;DHT22;39382;47.168;16.008;2023-11-22T07:21:29;5.30;99.90
53498;DHT22;39382;47.168;16.008;2023-11-22T07:23:57;6.50;99.90
53498;DHT22;39382;47.168;16.008;2023-11-22T07:26:24;6.70;99.90
53498;DHT22;39382;47.168;16.008;2023-11-22T07:28:52;6.50;99.90
53498;DHT22;39382;47.168;16.008;2023-11-22T07:31:18;6.80;99.90
53498;DHT22;39382;47.168;16.008;2023-11-22T07:33:45;5.40;99.90
53498;DHT22;39382;47.168;16.008;2023-11-22T07:36:10;6.60;99.90
53498;DHT22;39382;47.168;16.008;2023-11-22T07:38:39;6.10;99.90
53498;DHT22;39382;47.168;16.008;2023-11-22T07:41:06;6.40;99.90
53498;DHT22;39382;47.168;16.008;2023-11-22T07:43:32;6.00;99.90
53498;DHT22;39382;47.168;16.008;2023-11-22T07:45:58;6.10;99.90
53498;DHT22;39382;47.168;16.008;2023-11-22T07:48:25;6.50;99.90
53498;DHT22;39382;47.168;16.008;2023-11-22T07:50:51;5.70;99.90
53498;DHT22;39382;47.168;16.008;2023-11-22T07:53:18;5.90;99.90
53498;DHT22;39382;47.168;16.008;2023-11-22T07:55:44;6.50;99.90
53498;DHT22;39382;47.168;16.008;2023-11-22T07:58:10;5.90;99.90
53498;DHT22;39382;47.168;16.008;2023-11-22T08:00:36;6.70;99.90
53498;DHT22;39382;47.168;16.008;2023-11-22T08:03:07;6.70;99.90
53498;DHT22;39382;47.168;16.008;2023-11-22T08:05:33;6.10;99.90
53498;DHT22;39382;47.168;16.008;2023-11-22T08:08:05;7.20;99.90
53498;DHT22;39382;47.168;16.008;2023-11-22T08:10:37;6.90;99.90
53498;DHT22;39382;47.168;16.008;2023-11-22T08:13:03;6.30;99.90
53498;DHT22;39382;47.168;16.008;2023-11-22T08:15:29;7.20;99.90
53498;DHT22;39382;47.168;16.008;2023-11-22T08:17:57;6.30;99.90
53498;DHT22;39382;47.168;16.008;2023-11-22T08:20:23;6.40;99.90
53498;DHT22;39382;47.168;16.008;2023-11-22T08:22:48;7.10;99.90
53498;DHT22;39382;47.168;16.008;2023-11-22T08:25:16;6.50;99.90
53498;DHT22;39382;47.168;16.008;2023-11-22T08:27:42;6.50;99.90
53498;DHT22;39382;47.168;16.008;2023-11-22T08:30:09;6.60;99.90
53498;DHT22;39382;47.168;16.008;2023-11-22T08:32:45;6.60;99.90
53498;DHT22;39382;47.168;16.008;2023-11-22T08:35:16;6.80;99.90
53498;DHT22;39382;47.168;16.008;2023-11-22T08:37:43;6.70;99.90
53498;DHT22;39382;47.168;16.008;2023-11-22T08:40:09;6.70;99.90
53498;DHT22;39382;47.168;16.008;2023-11-22T08:42:40;6.70;99.90
53498;DHT22;39382;47.168;16.008;2023-11-22T08:45:06;6.70;99.90
53498;DHT22;39382;47.168;16.008;2023-11-22T08:47:34;6.80;99.90
53498;DHT22;39382;47.168;16.008;2023-11-22T08:50:00;6.80;99.90
53498;DHT22;39382;47.168;16.008;2023-11-22T08:52:29;7.20;99.90
53498;DHT22;39382;47.168;16.008;2023-11-22T08:54:56;7.60;99.90
53498;DHT22;39382;47.168;16.008;2023-11-22T08:57:22;7.50;99.90
53498;DHT22;39382;47.168;16.008;2023-11-22T08:59:48;7.40;99.90
53498;DHT22;39382;47.168;16.008;2023-11-22T09:02:14;7.50;99.90
53498;DHT22;39382;47.168;16.008;2023-11-22T09:04:41;7.10;99.90
53498;DHT22;39382;47.168;16.008;2023-11-22T09:07:07;7.60;99.90
53498;DHT22;39382;47.168;16.008;2023-11-22T09:09:33;7.10;99.90
53498;DHT22;39382;47.168;16.008;2023-11-22T09:12:00;7.20;99.90
53498;DHT22;39382;47.168;16.008;2023-11-22T09:14:26;7.20;99.90
53498;DHT22;39382;47.168;16.008;2023-11-22T09:16:52;7.30;99.90
53498;DHT22;39382;47.168;16.008;2023-11-22T09:19:24;7.30;99.90
53498;DHT22;39382;47.168;16.008;2023-11-22T09:21:53;7.40;99.90
53498;DHT22;39382;47.168;16.008;2023-11-22T09:24:19;7.40;99.90
53498;DHT22;39382;47.168;16.008;2023-11-22T09:26:45;7.40;99.90
53498;DHT22;39382;47.168;16.008;2023-11-22T09:29:10;7.40;99.90
53498;DHT22;39382;47.168;16.008;2023-11-22T09:31:40;7.30;99.90
53498;DHT22;39382;47.168;16.008;2023-11-22T09:34:08;7.40;99.90
53498;DHT22;39382;47.168;16.008;2023-11-22T09:36:33;7.40;99.90
53498;DHT22;39382;47.168;16.008;2023-11-22T09:38:59;7.40;99.90
53498;DHT22;39382;47.168;16.008;2023-11-22T09:41:25;7.70;99.90
53498;DHT22;39382;47.168;16.008;2023-11-22T09:43:53;7.40;99.60
53498;DHT22;39382;47.168;16.008;2023-11-22T09:46:19;7.30;99.20
53498;DHT22;39382;47.168;16.008;2023-11-22T09:48:47;7.40;99.90
53498;DHT22;39382;47.168;16.008;2023-11-22T09:53:53;7.40;99.40
53498;DHT22;39382;47.168;16.008;2023-11-22T09:56:23;7.50;98.90
53498;DHT22;39382;47.168;16.008;2023-11-22T09:58:52;7.60;98.70
53498;DHT22;39382;47.168;16.008;2023-11-22T10:01:22;7.60;98.30
53498;DHT22;39382;47.168;16.008;2023-11-22T10:03:48;7.70;99.10
53498;DHT22;39382;47.168;16.008;2023-11-22T10:06:14;7.80;98.60
53498;DHT22;39382;47.168;16.008;2023-11-22T10:08:43;7.80;98.70
53498;DHT22;39382;47.168;16.008;2023-11-22T10:11:09;7.80;98.20
53498;DHT22;39382;47.168;16.008;2023-11-22T10:13:34;7.90;97.80
53498;DHT22;39382;47.168;16.008;2023-11-22T10:16:09;7.90;97.30
53498;DHT22;39382;47.168;16.008;2023-11-22T10:18:42;7.80;97.70
53498;DHT22;39382;47.168;16.008;2023-11-22T10:21:41;7.90;97.90
53498;DHT22;39382;47.168;16.008;2023-11-22T10:24:06;7.90;98.00
53498;DHT22;39382;47.168;16.008;2023-11-22T10:26:36;8.00;98.00
53498;DHT22;39382;47.168;16.008;2023-11-22T10:29:01;8.00;97.30
53498;DHT22;39382;47.168;16.008;2023-11-22T10:31:27;8.00;97.40
53498;DHT22;39382;47.168;16.008;2023-11-22T10:33:54;8.30;97.80
53498;DHT22;39382;47.168;16.008;2023-11-22T10:36:23;8.00;97.00
53498;DHT22;39382;47.168;16.008;2023-11-22T10:38:49;8.20;97.50
53498;DHT22;39382;47.168;16.008;2023-11-22T10:41:16;8.30;97.50
53498;DHT22;39382;47.168;16.008;2023-11-22T10:43:42;8.40;96.30
53498;DHT22;39382;47.168;16.008;2023-11-22T10:46:09;8.70;96.60
53498;DHT22;39382;47.168;16.008;2023-11-22T10:48:38;8.60;96.40
53498;DHT22;39382;47.168;16.008;2023-11-22T10:51:04;8.70;96.80
53498;DHT22;39382;47.168;16.008;2023-11-22T10:53:35;8.70;96.80
53498;DHT22;39382;47.168;16.008;2023-11-22T10:56:16;8.70;95.60
53498;DHT22;39382;47.168;16.008;2023-11-22T10:59:13;8.80;95.20
53498;DHT22;39382;47.168;16.008;2023-11-22T11:01:47;8.80;94.60
53498;DHT22;39382;47.168;16.008;2023-11-22T11:04:26;8.70;94.30
53498;DHT22;39382;47.168;16.008;2023-11-22T11:06:54;8.90;97.80
53498;DHT22;39382;47.168;16.008;2023-11-22T11:09:23;8.90;94.10
53498;DHT22;39382;47.168;16.008;2023-11-22T11:11:55;9.00;94.10
53498;DHT22;39382;47.168;16.008;2023-11-22T11:14:22;9.00;93.40
53498;DHT22;39382;47.168;16.008;2023-11-22T11:16:50;9.10;93.50
53498;DHT22;39382;47.168;16.008;2023-11-22T11:19:19;9.10;93.30
53498;DHT22;39382;47.168;16.008;2023-11-22T11:21:47;9.20;93.30
53498;DHT22;39382;47.168;16.008;2023-11-22T11:24:13;9.10;92.60
53498;DHT22;39382;47.168;16.008;2023-11-22T11:26:40;9.10;92.70
53498;DHT22;39382;47.168;16.008;2023-11-22T11:29:05;9.20;93.30
53498;DHT22;39382;47.168;16.008;2023-11-22T11:31:34;9.10;92.60
53498;DHT22;39382;47.168;16.008;2023-11-22T11:34:07;9.10;92.10
53498;DHT22;39382;47.168;16.008;2023-11-22T11:36:33;9.20;92.80
53498;DHT22;39382;47.168;16.008;2023-11-22T11:39:06;9.30;92.70
53498;DHT22;39382;47.168;16.008;2023-11-22T11:41:35;9.30;92.00
53498;DHT22;39382;47.168;16.008;2023-11-22T11:44:07;9.40;92.50
53498;DHT22;39382;47.168;16.008;2023-11-22T11:46:34;9.30;92.20
53498;DHT22;39382;47.168;16.008;2023-11-22T11:49:06;9.40;91.90
53498;DHT22;39382;47.168;16.008;2023-11-22T11:51:33;9.40;91.80
53498;DHT22;39382;47.168;16.008;2023-11-22T11:53:59;9.20;91.80
53498;DHT22;39382;47.168;16.008;2023-11-22T11:56:24;9.30;91.50
53498;DHT22;39382;47.168;16.008;2023-11-22T11:58:53;9.20;92.30
53498;DHT22;39382;47.168;16.008;2023-11-22T12:01:21;9.30;91.60
53498;DHT22;39382;47.168;16.008;2023-11-22T12:03:47;9.30;91.70
53498;DHT22;39382;47.168;16.008;2023-11-22T12:06:17;9.30;92.40
53498;DHT22;39382;47.168;16.008;2023-11-22T12:08:43;9.50;91.70
53498;DHT22;39382;47.168;16.008;2023-11-22T12:11:09;9.40;91.40
53498;DHT22;39382;47.168;16.008;2023-11-22T12:13:37;9.40;91.30
53498;DHT22;39382;47.168;16.008;2023-11-22T12:16:09;9.40;91.00
53498;DHT22;39382;47.168;16.008;2023-11-22T12:21:08;9.40;91.00
53498;DHT22;39382;47.168;16.008;2023-11-22T12:23:38;9.30;90.70
53498;DHT22;39382;47.168;16.008;2023-11-22T12:26:04;9.20;91.00
53498;DHT22;39382;47.168;16.008;2023-11-22T12:28:30;9.20;91.10
53498;DHT22;39382;47.168;16.008;2023-11-22T12:31:12;9.20;90.90
53498;DHT22;39382;47.168;16.008;2023-11-22T12:33:39;9.20;90.80
53498;DHT22;39382;47.168;16.008;2023-11-22T12:36:06;9.10;90.40
53498;DHT22;39382;47.168;16.008;2023-11-22T12:38:32;9.00;90.40
53498;DHT22;39382;47.168;16.008;2023-11-22T12:40:59;9.10;91.00
53498;DHT22;39382;47.168;16.008;2023-11-22T12:43:27;9.10;90.00
53498;DHT22;39382;47.168;16.008;2023-11-22T12:46:00;8.90;90.40
53498;DHT22;39382;47.168;16.008;2023-11-22T12:48:26;9.00;90.70
53498;DHT22;39382;47.168;16.008;2023-11-22T12:50:55;9.00;90.60
53498;DHT22;39382;47.168;16.008;2023-11-22T12:53:21;9.00;90.50
53498;DHT22;39382;47.168;16.008;2023-11-22T12:55:49;8.90;90.10
53498;DHT22;39382;47.168;16.008;2023-11-22T12:58:25;8.80;90.50
53498;DHT22;39382;47.168;16.008;2023-11-22T13:00:52;8.70;90.60
53498;DHT22;39382;47.168;16.008;2023-11-22T13:03:24;8.60;90.50
53498;DHT22;39382;47.168;16.008;2023-11-22T13:05:50;8.40;90.20
53498;DHT22;39382;47.168;16.008;2023-11-22T13:08:18;8.70;99.30
53498;DHT22;39382;47.168;16.008;2023-11-22T13:10:45;9.00;93.20
53498;DHT22;39382;47.168;16.008;2023-11-22T13:13:12;9.10;92.40
53498;DHT22;39382;47.168;16.008;2023-11-22T13:15:38;9.40;94.00
53498;DHT22;39382;47.168;16.008;2023-11-22T13:18:06;9.60;92.40
53498;DHT22;39382;47.168;16.008;2023-11-22T13:20:32;9.40;89.30
53498;DHT22;39382;47.168;16.008;2023-11-22T13:22:58;9.30;90.60
53498;DHT22;39382;47.168;16.008;2023-11-22T13:25:25;9.40;90.00
53498;DHT22;39382;47.168;16.008;2023-11-22T13:27:51;9.10;89.00
53498;DHT22;39382;47.168;16.008;2023-11-22T13:30:19;9.30;91.30
53498;DHT22;39382;47.168;16.008;2023-11-22T13:32:45;9.10;90.00
53498;DHT22;39382;47.168;16.008;2023-11-22T13:35:11;9.00;93.00
53498;DHT22;39382;47.168;16.008;2023-11-22T13:37:47;9.10;90.90
53498;DHT22;39382;47.168;16.008;2023-11-22T13:40:19;9.10;90.70
53498;DHT22;39382;47.168;16.008;2023-11-22T13:42:49;9.10;89.20
53498;DHT22;39382;47.168;16.008;2023-11-22T13:45:16;9.00;90.90
53498;DHT22;39382;47.168;16.008;2023-11-22T13:47:47;9.10;90.50
53498;DHT22;39382;47.168;16.008;2023-11-22T13:50:14;9.40;90.90
53498;DHT22;39382;47.168;16.008;2023-11-22T13:52:50;9.40;89.50
53498;DHT22;39382;47.168;16.008;2023-11-22T13:55:17;9.20;88.20
53498;DHT22;39382;47.168;16.008;2023-11-22T13:57:44;9.10;90.40
53498;DHT22;39382;47.168;16.008;2023-11-22T14:00:10;9.10;90.60
53498;DHT22;39382;47.168;16.008;2023-11-22T14:02:39;8.90;91.50
53498;DHT22;39382;47.168;16.008;2023-11-22T14:05:06;8.80;90.70
53498;DHT22;39382;47.168;16.008;2023-11-22T14:07:37;8.70;91.30
53498;DHT22;39382;47.168;16.008;2023-11-22T14:10:04;9.00;91.70
53498;DHT22;39382;47.168;16.008;2023-11-22T14:12:30;8.90;90.70
53498;DHT22;39382;47.168;16.008;2023-11-22T14:14:59;8.70;90.00
53498;DHT22;39382;47.168;16.008;2023-11-22T14:17:25;8.50;91.90
53498;DHT22;39382;47.168;16.008;2023-11-22T14:19:51;8.60;90.90
53498;DHT22;39382;47.168;16.008;2023-11-22T14:22:18;8.80;92.00
53498;DHT22;39382;47.168;16.008;2023-11-22T14:24:44;9.10;91.20
53498;DHT22;39382;47.168;16.008;2023-11-22T14:27:12;8.90;90.30
53498;DHT22;39382;47.168;16.008;2023-11-22T14:29:38;9.00;90.10
53498;DHT22;39382;47.168;16.008;2023-11-22T14:32:06;8.90;90.70
53498;DHT22;39382;47.168;16.008;2023-11-22T14:34:32;9.10;90.40
53498;DHT22;39382;47.168;16.008;2023-11-22T14:36:58;9.50;89.30
53498;DHT22;39382;47.168;16.008;2023-11-22T14:39:24;9.30;87.60
53498;DHT22;39382;47.168;16.008;2023-11-22T14:41:49;8.90;88.60
53498;DHT22;39382;47.168;16.008;2023-11-22T14:44:17;8.90;90.50
53498;DHT22;39382;47.168;16.008;2023-11-22T14:46:46;8.80;90.40
53498;DHT22;39382;47.168;16.008;2023-11-22T14:49:13;9.00;90.20
53498;DHT22;39382;47.168;16.008;2023-11-22T14:51:40;8.70;87.00
53498;DHT22;39382;47.168;16.008;2023-11-22T14:54:05;8.50;89.60
53498;DHT22;39382;47.168;16.008;2023-11-22T14:56:32;8.90;88.80
53498;DHT22;39382;47.168;16.008;2023-11-22T14:58:58;8.30;89.80
53498;DHT22;39382;47.168;16.008;2023-11-22T15:01:25;8.20;90.40
53498;DHT22;39382;47.168;16.008;2023-11-22T15:03:51;8.40;90.50
53498;DHT22;39382;47.168;16.008;2023-11-22T15:06:19;8.40;90.20
53498;DHT22;39382;47.168;16.008;2023-11-22T15:08:45;8.70;89.90
53498;DHT22;39382;47.168;16.008;2023-11-22T15:11:11;9.10;88.80
53498;DHT22;39382;47.168;16.008;2023-11-22T15:13:37;9.30;88.30
53498;DHT22;39382;47.168;16.008;2023-11-22T15:16:03;9.30;87.30
53498;DHT22;39382;47.168;16.008;2023-11-22T15:18:28;9.10;85.30
53498;DHT22;39382;47.168;16.008;2023-11-22T15:20:56;8.60;88.30
53498;DHT22;39382;47.168;16.008;2023-11-22T15:23:21;8.00;86.70
53498;DHT22;39382;47.168;16.008;2023-11-22T15:25:47;7.40;89.10
53498;DHT22;39382;47.168;16.008;2023-11-22T15:28:13;7.00;90.60
53498;DHT22;39382;47.168;16.008;2023-11-22T15:30:47;7.00;93.30
53498;DHT22;39382;47.168;16.008;2023-11-22T15:33:14;6.50;92.60
53498;DHT22;39382;47.168;16.008;2023-11-22T15:35:40;6.20;92.80